หน้าหลัก
METAR-TAF:

METAR-TAF

ท่าอากาศยาน :

การากัส, เวเนซุเอลา

ละติจูด: 10-36N, ลองจิจูด: 066-59W, ความสูง: 43 ม.

การสังเกตสภาพอากาศปัจจุบัน

รายงานได้ทำขึ้นเมื่อ 10 นาทีที่แล้ว ณ เวลา 11:03 UTC
ลม 1 นอตจากเหนือ/ตะวันตกเฉียงเหนือ
อุณหภูมิ 25°C
ความชื้น 74%
ความกดอากาศ 1016 hPa

METAR: SVMI 261103Z AUTO 33001KT NCD 25/20 Q1016

เวลา: 07:13 (11:13 UTC)

การพยากรณ์

รายงานได้ทำขึ้นเมื่อ 7 ชั่วโมงและ 13 นาทีที่แล้ว ณ เวลา 04:00 UTC
การพยากรณ์มีผลตั้งแต่วันที่ 26 ณ เวลา 06 UTC จนถึงวันที่ 27 ณ เวลา 06 UTC
ลม 10 นอตจากตะวันออก
ทัศนวิสัย 10 กม. หรือมากกว่า
มีเมฆน้อยที่ความสูง 1600 ฟุต
ชั่วคราว
ตั้งแต่วันที่ 26 ณ เวลา 06 UTC จนถึงวันที่ 26 ณ เวลา 10 UTC
ทัศนวิสัย 10 กม. หรือมากกว่า
ไม่มีเมฆต่ำกว่า 1,500 ม. และไม่มีเมฆคิวมูโลนิมบัส

TAF: SVMI 260400Z 2606/2706 08010KT 9999 FEW016 TX33/2618Z TN22/2608Z TEMPO 2606/2610 CAVOK

สังเกตการณ์สภาพอากาศและพยากรณ์อากาศของสนามบินมากกว่า 4000 แห่ง (รายงาน METAR และ TAF).

สถานีที่ดูได้จะแสดงไว้ด้วยจุดสีเหลืองและสีแดงบนแผนที่.

เลื่อนเมาส์ไปเหนือจุดเพื่อดูชื่อสถานี.

แล้วคลิกเพื่อดูสังเกตการณ์และการพยากรณ์สภาพอากาศ.

ในการเปลี่ยนแผนที่: คลิกที่ปุ่มสีเขียวที่มีกากบาทสีดำเพื่อซูมเข้า; ที่ปุ่มสีเขียวที่มีขีดเพื่อซูมออก; หรือที่ลูกศรสีเขียวเพื่อไปยังแผนที่ที่อยู่ติดกัน.


METAR-TAF: